sensor_id;sensor_type;location;lat;lon;timestamp;P1;durP1;ratioP1;P2;durP2;ratioP2
1400;SDS011;46518;48.842;8.926;2023-12-20T00:02:21;2.83;;;2.33;;
1400;SDS011;46518;48.842;8.926;2023-12-20T00:04:49;3.45;;;2.22;;
1400;SDS011;46518;48.842;8.926;2023-12-20T00:07:18;2.53;;;2.33;;
1400;SDS011;46518;48.842;8.926;2023-12-20T00:09:46;2.90;;;2.30;;
1400;SDS011;46518;48.842;8.926;2023-12-20T00:12:15;2.83;;;2.47;;
1400;SDS011;46518;48.842;8.926;2023-12-20T00:14:43;3.17;;;2.20;;
1400;SDS011;46518;48.842;8.926;2023-12-20T00:17:12;2.90;;;2.60;;
1400;SDS011;46518;48.842;8.926;2023-12-20T00:19:40;3.72;;;3.17;;
1400;SDS011;46518;48.842;8.926;2023-12-20T00:22:08;2.22;;;2.08;;
1400;SDS011;46518;48.842;8.926;2023-12-20T00:24:36;2.80;;;2.30;;
1400;SDS011;46518;48.842;8.926;2023-12-20T00:27:04;3.00;;;2.55;;
1400;SDS011;46518;48.842;8.926;2023-12-20T00:29:34;3.60;;;2.60;;
1400;SDS011;46518;48.842;8.926;2023-12-20T00:32:02;2.65;;;2.45;;
1400;SDS011;46518;48.842;8.926;2023-12-20T00:34:31;2.75;;;2.53;;
1400;SDS011;46518;48.842;8.926;2023-12-20T00:36:59;2.65;;;2.45;;
1400;SDS011;46518;48.842;8.926;2023-12-20T00:39:29;2.85;;;2.60;;
1400;SDS011;46518;48.842;8.926;2023-12-20T00:42:01;3.90;;;2.53;;
1400;SDS011;46518;48.842;8.926;2023-12-20T00:44:29;4.13;;;2.85;;
1400;SDS011;46518;48.842;8.926;2023-12-20T00:46:59;2.75;;;2.47;;
1400;SDS011;46518;48.842;8.926;2023-12-20T00:49:27;2.78;;;2.58;;
1400;SDS011;46518;48.842;8.926;2023-12-20T00:51:57;2.50;;;2.30;;
1400;SDS011;46518;48.842;8.926;2023-12-20T00:54:25;3.20;;;2.90;;
1400;SDS011;46518;48.842;8.926;2023-12-20T00:56:53;3.00;;;2.67;;
1400;SDS011;46518;48.842;8.926;2023-12-20T00:59:22;3.15;;;2.22;;
1400;SDS011;46518;48.842;8.926;2023-12-20T01:01:53;2.67;;;2.47;;
1400;SDS011;46518;48.842;8.926;2023-12-20T01:04:23;3.42;;;2.10;;
1400;SDS011;46518;48.842;8.926;2023-12-20T01:06:52;2.75;;;2.55;;
1400;SDS011;46518;48.842;8.926;2023-12-20T01:09:23;2.65;;;2.45;;
1400;SDS011;46518;48.842;8.926;2023-12-20T01:11:53;3.38;;;2.20;;
1400;SDS011;46518;48.842;8.926;2023-12-20T01:14:21;2.60;;;2.05;;
1400;SDS011;46518;48.842;8.926;2023-12-20T01:16:49;2.60;;;2.17;;
1400;SDS011;46518;48.842;8.926;2023-12-20T01:19:17;2.78;;;1.90;;
1400;SDS011;46518;48.842;8.926;2023-12-20T01:21:47;1.88;;;1.75;;
1400;SDS011;46518;48.842;8.926;2023-12-20T01:24:15;1.92;;;1.20;;
1400;SDS011;46518;48.842;8.926;2023-12-20T01:26:43;2.72;;;1.52;;
1400;SDS011;46518;48.842;8.926;2023-12-20T01:29:12;2.05;;;1.15;;
1400;SDS011;46518;48.842;8.926;2023-12-20T01:31:40;0.93;;;0.80;;
1400;SDS011;46518;48.842;8.926;2023-12-20T01:34:09;1.10;;;0.60;;
1400;SDS011;46518;48.842;8.926;2023-12-20T01:36:37;0.68;;;0.60;;
1400;SDS011;46518;48.842;8.926;2023-12-20T01:39:10;0.50;;;0.50;;
1400;SDS011;46518;48.842;8.926;2023-12-20T01:41:53;0.40;;;0.40;;
1400;SDS011;46518;48.842;8.926;2023-12-20T01:44:22;0.50;;;0.50;;
1400;SDS011;46518;48.842;8.926;2023-12-20T01:46:51;0.50;;;0.45;;
1400;SDS011;46518;48.842;8.926;2023-12-20T01:49:21;0.80;;;0.50;;
1400;SDS011;46518;48.842;8.926;2023-12-20T01:51:51;0.60;;;0.50;;
1400;SDS011;46518;48.842;8.926;2023-12-20T01:54:21;0.77;;;0.50;;
1400;SDS011;46518;48.842;8.926;2023-12-20T01:56:50;1.13;;;0.60;;
1400;SDS011;46518;48.842;8.926;2023-12-20T01:59:18;0.50;;;0.50;;
1400;SDS011;46518;48.842;8.926;2023-12-20T02:01:49;0.60;;;0.45;;
1400;SDS011;46518;48.842;8.926;2023-12-20T02:04:18;0.50;;;0.40;;
1400;SDS011;46518;48.842;8.926;2023-12-20T02:06:47;0.40;;;0.40;;
1400;SDS011;46518;48.842;8.926;2023-12-20T02:09:21;0.60;;;0.50;;
1400;SDS011;46518;48.842;8.926;2023-12-20T02:11:50;0.40;;;0.40;;
1400;SDS011;46518;48.842;8.926;2023-12-20T02:14:18;0.88;;;0.50;;
1400;SDS011;46518;48.842;8.926;2023-12-20T02:16:47;0.40;;;0.40;;
1400;SDS011;46518;48.842;8.926;2023-12-20T02:19:15;0.60;;;0.47;;
1400;SDS011;46518;48.842;8.926;2023-12-20T02:21:51;0.40;;;0.40;;
1400;SDS011;46518;48.842;8.926;2023-12-20T02:24:33;0.50;;;0.47;;
1400;SDS011;46518;48.842;8.926;2023-12-20T02:27:01;0.40;;;0.40;;
1400;SDS011;46518;48.842;8.926;2023-12-20T02:29:30;0.50;;;0.50;;
1400;SDS011;46518;48.842;8.926;2023-12-20T02:31:59;0.80;;;0.50;;
1400;SDS011;46518;48.842;8.926;2023-12-20T02:34:30;0.50;;;0.40;;
1400;SDS011;46518;48.842;8.926;2023-12-20T02:37:00;0.50;;;0.50;;
1400;SDS011;46518;48.842;8.926;2023-12-20T02:39:28;0.80;;;0.60;;
1400;SDS011;46518;48.842;8.926;2023-12-20T02:41:57;1.08;;;0.55;;
1400;SDS011;46518;48.842;8.926;2023-12-20T02:44:26;0.50;;;0.40;;
1400;SDS011;46518;48.842;8.926;2023-12-20T02:46:54;0.68;;;0.40;;
1400;SDS011;46518;48.842;8.926;2023-12-20T02:49:22;0.70;;;0.60;;
1400;SDS011;46518;48.842;8.926;2023-12-20T02:51:51;1.63;;;0.60;;
1400;SDS011;46518;48.842;8.926;2023-12-20T02:54:20;0.60;;;0.50;;
1400;SDS011;46518;48.842;8.926;2023-12-20T02:56:49;0.60;;;0.47;;
1400;SDS011;46518;48.842;8.926;2023-12-20T02:59:17;0.73;;;0.40;;
1400;SDS011;46518;48.842;8.926;2023-12-20T03:01:46;0.80;;;0.80;;
1400;SDS011;46518;48.842;8.926;2023-12-20T03:04:14;0.65;;;0.50;;
1400;SDS011;46518;48.842;8.926;2023-12-20T03:06:43;0.60;;;0.50;;
1400;SDS011;46518;48.842;8.926;2023-12-20T03:09:11;0.60;;;0.50;;
1400;SDS011;46518;48.842;8.926;2023-12-20T03:11:40;0.50;;;0.40;;
1400;SDS011;46518;48.842;8.926;2023-12-20T03:14:09;0.50;;;0.50;;
1400;SDS011;46518;48.842;8.926;2023-12-20T03:16:39;0.50;;;0.50;;
1400;SDS011;46518;48.842;8.926;2023-12-20T03:19:07;1.60;;;0.50;;
1400;SDS011;46518;48.842;8.926;2023-12-20T03:21:36;0.50;;;0.50;;
1400;SDS011;46518;48.842;8.926;2023-12-20T03:24:04;0.60;;;0.60;;
1400;SDS011;46518;48.842;8.926;2023-12-20T03:26:34;0.60;;;0.50;;
1400;SDS011;46518;48.842;8.926;2023-12-20T03:29:04;0.60;;;0.60;;
1400;SDS011;46518;48.842;8.926;2023-12-20T03:31:32;0.50;;;0.40;;
1400;SDS011;46518;48.842;8.926;2023-12-20T03:34:00;0.50;;;0.40;;
1400;SDS011;46518;48.842;8.926;2023-12-20T03:36:30;0.65;;;0.50;;
1400;SDS011;46518;48.842;8.926;2023-12-20T03:38:58;0.50;;;0.50;;
1400;SDS011;46518;48.842;8.926;2023-12-20T03:41:27;1.60;;;0.57;;
1400;SDS011;46518;48.842;8.926;2023-12-20T03:43:58;0.88;;;0.52;;
1400;SDS011;46518;48.842;8.926;2023-12-20T03:46:27;0.82;;;0.60;;
1400;SDS011;46518;48.842;8.926;2023-12-20T03:48:56;1.45;;;0.80;;
1400;SDS011;46518;48.842;8.926;2023-12-20T03:51:26;0.82;;;0.70;;
1400;SDS011;46518;48.842;8.926;2023-12-20T03:53:54;0.40;;;0.40;;
1400;SDS011;46518;48.842;8.926;2023-12-20T03:56:22;0.50;;;0.50;;
1400;SDS011;46518;48.842;8.926;2023-12-20T03:58:50;0.70;;;0.65;;
1400;SDS011;46518;48.842;8.926;2023-12-20T04:01:19;0.60;;;0.60;;
1400;SDS011;46518;48.842;8.926;2023-12-20T04:03:49;0.95;;;0.60;;
1400;SDS011;46518;48.842;8.926;2023-12-20T04:06:18;0.57;;;0.55;;
1400;SDS011;46518;48.842;8.926;2023-12-20T04:08:47;1.08;;;0.57;;
1400;SDS011;46518;48.842;8.926;2023-12-20T04:11:17;0.85;;;0.85;;
1400;SDS011;46518;48.842;8.926;2023-12-20T04:13:45;0.55;;;0.50;;
1400;SDS011;46518;48.842;8.926;2023-12-20T04:16:14;1.50;;;0.60;;
1400;SDS011;46518;48.842;8.926;2023-12-20T04:18:42;0.55;;;0.52;;
1400;SDS011;46518;48.842;8.926;2023-12-20T04:21:12;0.60;;;0.50;;
1400;SDS011;46518;48.842;8.926;2023-12-20T04:23:40;0.50;;;0.50;;
1400;SDS011;46518;48.842;8.926;2023-12-20T04:26:08;0.52;;;0.47;;
1400;SDS011;46518;48.842;8.926;2023-12-20T04:28:36;0.70;;;0.70;;
1400;SDS011;46518;48.842;8.926;2023-12-20T04:31:05;0.85;;;0.65;;
1400;SDS011;46518;48.842;8.926;2023-12-20T04:33:34;0.82;;;0.82;;
1400;SDS011;46518;48.842;8.926;2023-12-20T04:36:02;0.63;;;0.63;;
1400;SDS011;46518;48.842;8.926;2023-12-20T04:38:32;0.52;;;0.52;;
1400;SDS011;46518;48.842;8.926;2023-12-20T04:41:02;0.60;;;0.60;;
1400;SDS011;46518;48.842;8.926;2023-12-20T04:43:31;0.60;;;0.60;;
1400;SDS011;46518;48.842;8.926;2023-12-20T04:46:01;0.50;;;0.50;;
1400;SDS011;46518;48.842;8.926;2023-12-20T04:48:29;0.50;;;0.50;;
1400;SDS011;46518;48.842;8.926;2023-12-20T04:50:57;0.52;;;0.52;;
1400;SDS011;46518;48.842;8.926;2023-12-20T04:53:26;0.73;;;0.60;;
1400;SDS011;46518;48.842;8.926;2023-12-20T04:55:55;0.43;;;0.43;;
1400;SDS011;46518;48.842;8.926;2023-12-20T04:58:24;1.02;;;0.57;;
1400;SDS011;46518;48.842;8.926;2023-12-20T05:00:52;0.70;;;0.70;;
1400;SDS011;46518;48.842;8.926;2023-12-20T05:03:21;0.73;;;0.70;;
1400;SDS011;46518;48.842;8.926;2023-12-20T05:05:49;0.95;;;0.77;;
1400;SDS011;46518;48.842;8.926;2023-12-20T05:08:17;0.95;;;0.80;;
1400;SDS011;46518;48.842;8.926;2023-12-20T05:10:48;1.42;;;1.30;;
1400;SDS011;46518;48.842;8.926;2023-12-20T05:13:17;0.93;;;0.93;;
1400;SDS011;46518;48.842;8.926;2023-12-20T05:15:45;1.20;;;1.10;;
1400;SDS011;46518;48.842;8.926;2023-12-20T05:18:14;1.20;;;1.10;;
1400;SDS011;46518;48.842;8.926;2023-12-20T05:20:42;0.85;;;0.85;;
1400;SDS011;46518;48.842;8.926;2023-12-20T05:23:10;1.45;;;1.35;;
1400;SDS011;46518;48.842;8.926;2023-12-20T05:25:38;1.10;;;1.00;;
1400;SDS011;46518;48.842;8.926;2023-12-20T05:28:10;1.90;;;1.10;;
1400;SDS011;46518;48.842;8.926;2023-12-20T05:30:39;1.05;;;1.05;;
1400;SDS011;46518;48.842;8.926;2023-12-20T05:33:10;1.30;;;1.20;;
1400;SDS011;46518;48.842;8.926;2023-12-20T05:35:38;1.45;;;1.23;;
1400;SDS011;46518;48.842;8.926;2023-12-20T05:38:06;1.25;;;1.15;;
1400;SDS011;46518;48.842;8.926;2023-12-20T05:40:35;1.20;;;1.10;;
1400;SDS011;46518;48.842;8.926;2023-12-20T05:43:03;1.30;;;1.20;;
1400;SDS011;46518;48.842;8.926;2023-12-20T05:45:31;1.70;;;1.17;;
1400;SDS011;46518;48.842;8.926;2023-12-20T05:48:01;1.00;;;0.90;;
1400;SDS011;46518;48.842;8.926;2023-12-20T05:50:29;1.17;;;1.08;;
1400;SDS011;46518;48.842;8.926;2023-12-20T05:52:57;1.00;;;1.00;;
1400;SDS011;46518;48.842;8.926;2023-12-20T05:55:26;1.30;;;1.10;;
1400;SDS011;46518;48.842;8.926;2023-12-20T05:57:54;0.80;;;0.70;;
1400;SDS011;46518;48.842;8.926;2023-12-20T06:00:22;1.50;;;1.10;;
1400;SDS011;46518;48.842;8.926;2023-12-20T06:02:52;1.08;;;0.98;;
1400;SDS011;46518;48.842;8.926;2023-12-20T06:05:22;1.10;;;1.00;;
1400;SDS011;46518;48.842;8.926;2023-12-20T06:07:50;2.05;;;1.20;;
1400;SDS011;46518;48.842;8.926;2023-12-20T06:10:19;1.10;;;1.10;;
1400;SDS011;46518;48.842;8.926;2023-12-20T06:12:49;0.93;;;0.93;;
1400;SDS011;46518;48.842;8.926;2023-12-20T06:15:18;1.50;;;1.40;;
1400;SDS011;46518;48.842;8.926;2023-12-20T06:17:46;1.30;;;1.20;;
1400;SDS011;46518;48.842;8.926;2023-12-20T06:20:15;1.80;;;1.60;;
1400;SDS011;46518;48.842;8.926;2023-12-20T06:22:46;1.45;;;1.35;;
1400;SDS011;46518;48.842;8.926;2023-12-20T06:25:17;1.58;;;1.15;;
1400;SDS011;46518;48.842;8.926;2023-12-20T06:27:46;2.90;;;1.20;;
1400;SDS011;46518;48.842;8.926;2023-12-20T06:30:17;1.95;;;1.35;;
1400;SDS011;46518;48.842;8.926;2023-12-20T06:32:46;1.75;;;1.65;;
1400;SDS011;46518;48.842;8.926;2023-12-20T06:35:16;1.70;;;1.48;;
1400;SDS011;46518;48.842;8.926;2023-12-20T06:37:49;1.60;;;1.50;;
1400;SDS011;46518;48.842;8.926;2023-12-20T06:43:19;2.13;;;1.92;;
1400;SDS011;46518;48.842;8.926;2023-12-20T06:46:12;2.80;;;2.60;;
1400;SDS011;46518;48.842;8.926;2023-12-20T06:48:41;3.58;;;3.28;;
1400;SDS011;46518;48.842;8.926;2023-12-20T06:51:14;8.25;;;4.13;;
1400;SDS011;46518;48.842;8.926;2023-12-20T06:53:44;3.65;;;3.35;;
1400;SDS011;46518;48.842;8.926;2023-12-20T06:56:13;5.03;;;4.13;;
1400;SDS011;46518;48.842;8.926;2023-12-20T06:58:45;3.78;;;3.38;;
1400;SDS011;46518;48.842;8.926;2023-12-20T07:01:15;4.00;;;3.70;;
1400;SDS011;46518;48.842;8.926;2023-12-20T07:03:45;5.65;;;4.85;;
1400;SDS011;46518;48.842;8.926;2023-12-20T07:06:15;5.57;;;4.57;;
1400;SDS011;46518;48.842;8.926;2023-12-20T07:08:50;3.40;;;2.85;;
1400;SDS011;46518;48.842;8.926;2023-12-20T07:11:18;4.22;;;3.83;;
1400;SDS011;46518;48.842;8.926;2023-12-20T07:13:47;3.35;;;3.05;;
1400;SDS011;46518;48.842;8.926;2023-12-20T07:16:19;3.05;;;2.75;;
1400;SDS011;46518;48.842;8.926;2023-12-20T07:18:47;3.83;;;3.53;;
1400;SDS011;46518;48.842;8.926;2023-12-20T07:21:16;3.22;;;2.92;;
1400;SDS011;46518;48.842;8.926;2023-12-20T07:23:47;4.38;;;3.40;;
1400;SDS011;46518;48.842;8.926;2023-12-20T07:26:18;4.97;;;4.07;;
1400;SDS011;46518;48.842;8.926;2023-12-20T07:28:46;4.88;;;3.88;;
1400;SDS011;46518;48.842;8.926;2023-12-20T07:31:15;5.03;;;4.28;;
1400;SDS011;46518;48.842;8.926;2023-12-20T07:33:43;4.88;;;4.45;;
1400;SDS011;46518;48.842;8.926;2023-12-20T07:36:12;3.58;;;3.28;;
1400;SDS011;46518;48.842;8.926;2023-12-20T07:38:43;4.80;;;4.30;;
1400;SDS011;46518;48.842;8.926;2023-12-20T07:41:14;5.47;;;4.88;;
1400;SDS011;46518;48.842;8.926;2023-12-20T07:43:45;4.55;;;4.15;;
1400;SDS011;46518;48.842;8.926;2023-12-20T07:46:16;8.05;;;4.38;;
1400;SDS011;46518;48.842;8.926;2023-12-20T07:48:45;4.65;;;4.22;;
1400;SDS011;46518;48.842;8.926;2023-12-20T07:51:14;6.32;;;5.13;;
1400;SDS011;46518;48.842;8.926;2023-12-20T07:53:45;4.65;;;4.25;;
1400;SDS011;46518;48.842;8.926;2023-12-20T07:56:13;6.68;;;5.15;;
1400;SDS011;46518;48.842;8.926;2023-12-20T07:58:42;5.97;;;5.40;;
1400;SDS011;46518;48.842;8.926;2023-12-20T08:01:19;7.50;;;3.95;;
1400;SDS011;46518;48.842;8.926;2023-12-20T08:03:52;5.57;;;4.40;;
1400;SDS011;46518;48.842;8.926;2023-12-20T08:06:23;6.22;;;5.05;;
1400;SDS011;46518;48.842;8.926;2023-12-20T08:08:51;6.28;;;4.20;;
1400;SDS011;46518;48.842;8.926;2023-12-20T08:11:32;4.88;;;3.80;;
1400;SDS011;46518;48.842;8.926;2023-12-20T08:14:01;4.80;;;4.22;;
1400;SDS011;46518;48.842;8.926;2023-12-20T08:16:30;5.60;;;3.92;;
1400;SDS011;46518;48.842;8.926;2023-12-20T08:18:58;4.97;;;3.80;;
1400;SDS011;46518;48.842;8.926;2023-12-20T08:21:27;4.57;;;4.18;;
1400;SDS011;46518;48.842;8.926;2023-12-20T08:23:56;4.53;;;4.13;;
1400;SDS011;46518;48.842;8.926;2023-12-20T08:26:25;5.68;;;4.20;;
1400;SDS011;46518;48.842;8.926;2023-12-20T08:28:54;4.38;;;3.97;;
1400;SDS011;46518;48.842;8.926;2023-12-20T08:31:28;5.10;;;4.18;;
1400;SDS011;46518;48.842;8.926;2023-12-20T08:34:00;5.28;;;4.72;;
1400;SDS011;46518;48.842;8.926;2023-12-20T08:36:32;8.95;;;4.20;;
1400;SDS011;46518;48.842;8.926;2023-12-20T08:39:02;4.95;;;4.03;;
1400;SDS011;46518;48.842;8.926;2023-12-20T08:41:36;6.28;;;5.55;;
1400;SDS011;46518;48.842;8.926;2023-12-20T08:44:04;4.93;;;4.35;;
1400;SDS011;46518;48.842;8.926;2023-12-20T08:46:36;5.45;;;4.85;;
1400;SDS011;46518;48.842;8.926;2023-12-20T08:49:04;4.70;;;4.20;;
1400;SDS011;46518;48.842;8.926;2023-12-20T08:51:36;5.68;;;4.65;;
1400;SDS011;46518;48.842;8.926;2023-12-20T08:54:08;4.63;;;4.13;;
1400;SDS011;46518;48.842;8.926;2023-12-20T08:56:40;4.50;;;3.67;;
1400;SDS011;46518;48.842;8.926;2023-12-20T08:59:09;4.78;;;3.60;;
1400;SDS011;46518;48.842;8.926;2023-12-20T09:01:40;5.15;;;3.20;;
1400;SDS011;46518;48.842;8.926;2023-12-20T09:04:09;3.38;;;3.08;;
1400;SDS011;46518;48.842;8.926;2023-12-20T09:06:37;3.95;;;2.65;;
1400;SDS011;46518;48.842;8.926;2023-12-20T09:09:06;2.55;;;2.15;;
1400;SDS011;46518;48.842;8.926;2023-12-20T09:11:40;2.88;;;2.40;;
1400;SDS011;46518;48.842;8.926;2023-12-20T09:14:14;3.08;;;2.30;;
1400;SDS011;46518;48.842;8.926;2023-12-20T09:16:43;2.10;;;1.90;;
1400;SDS011;46518;48.842;8.926;2023-12-20T09:19:12;9.25;;;2.47;;
1400;SDS011;46518;48.842;8.926;2023-12-20T09:21:41;5.32;;;2.30;;
1400;SDS011;46518;48.842;8.926;2023-12-20T09:24:10;2.28;;;1.70;;
1400;SDS011;46518;48.842;8.926;2023-12-20T09:26:38;11.52;;;2.10;;
1400;SDS011;46518;48.842;8.926;2023-12-20T09:29:08;9.25;;;2.08;;
1400;SDS011;46518;48.842;8.926;2023-12-20T09:31:41;3.95;;;1.65;;
1400;SDS011;46518;48.842;8.926;2023-12-20T09:34:13;4.53;;;2.33;;
1400;SDS011;46518;48.842;8.926;2023-12-20T09:36:42;2.17;;;1.45;;
1400;SDS011;46518;48.842;8.926;2023-12-20T09:39:14;3.22;;;1.92;;
1400;SDS011;46518;48.842;8.926;2023-12-20T09:41:51;3.78;;;1.92;;
1400;SDS011;46518;48.842;8.926;2023-12-20T09:44:27;4.85;;;1.80;;
1400;SDS011;46518;48.842;8.926;2023-12-20T09:46:56;4.75;;;2.30;;
1400;SDS011;46518;48.842;8.926;2023-12-20T09:49:27;3.97;;;2.05;;
1400;SDS011;46518;48.842;8.926;2023-12-20T09:51:56;2.97;;;1.65;;
1400;SDS011;46518;48.842;8.926;2023-12-20T09:54:26;2.53;;;1.65;;
1400;SDS011;46518;48.842;8.926;2023-12-20T09:56:58;7.03;;;2.20;;
1400;SDS011;46518;48.842;8.926;2023-12-20T09:59:29;4.32;;;2.95;;
1400;SDS011;46518;48.842;8.926;2023-12-20T10:01:57;4.10;;;2.40;;
1400;SDS011;46518;48.842;8.926;2023-12-20T10:04:29;4.47;;;2.83;;
1400;SDS011;46518;48.842;8.926;2023-12-20T10:07:01;7.15;;;2.90;;
1400;SDS011;46518;48.842;8.926;2023-12-20T10:09:32;5.35;;;2.72;;
1400;SDS011;46518;48.842;8.926;2023-12-20T10:12:08;6.55;;;3.33;;
1400;SDS011;46518;48.842;8.926;2023-12-20T10:14:37;4.38;;;2.75;;
1400;SDS011;46518;48.842;8.926;2023-12-20T10:17:06;4.53;;;3.10;;
1400;SDS011;46518;48.842;8.926;2023-12-20T10:19:36;3.28;;;2.22;;
1400;SDS011;46518;48.842;8.926;2023-12-20T10:22:05;4.60;;;3.10;;
1400;SDS011;46518;48.842;8.926;2023-12-20T10:24:33;3.35;;;2.15;;
1400;SDS011;46518;48.842;8.926;2023-12-20T10:27:01;3.45;;;2.40;;
1400;SDS011;46518;48.842;8.926;2023-12-20T10:29:35;3.90;;;2.42;;
1400;SDS011;46518;48.842;8.926;2023-12-20T10:32:23;4.35;;;2.22;;
1400;SDS011;46518;48.842;8.926;2023-12-20T10:34:56;3.20;;;1.73;;
1400;SDS011;46518;48.842;8.926;2023-12-20T10:37:26;3.53;;;1.92;;
1400;SDS011;46518;48.842;8.926;2023-12-20T10:39:57;9.30;;;2.95;;
1400;SDS011;46518;48.842;8.926;2023-12-20T10:42:33;5.00;;;2.72;;
1400;SDS011;46518;48.842;8.926;2023-12-20T10:45:04;6.90;;;2.38;;
1400;SDS011;46518;48.842;8.926;2023-12-20T10:47:33;15.00;;;3.40;;
1400;SDS011;46518;48.842;8.926;2023-12-20T10:50:07;5.57;;;2.50;;
1400;SDS011;46518;48.842;8.926;2023-12-20T10:52:37;6.22;;;2.42;;
1400;SDS011;46518;48.842;8.926;2023-12-20T10:55:06;7.30;;;2.63;;
1400;SDS011;46518;48.842;8.926;2023-12-20T10:57:37;4.97;;;2.08;;
1400;SDS011;46518;48.842;8.926;2023-12-20T11:00:06;4.57;;;3.20;;
1400;SDS011;46518;48.842;8.926;2023-12-20T11:02:40;4.30;;;2.78;;
1400;SDS011;46518;48.842;8.926;2023-12-20T11:05:15;2.70;;;2.50;;
1400;SDS011;46518;48.842;8.926;2023-12-20T11:07:52;4.88;;;3.40;;
1400;SDS011;46518;48.842;8.926;2023-12-20T11:10:26;3.67;;;2.90;;
1400;SDS011;46518;48.842;8.926;2023-12-20T11:12:59;3.45;;;2.30;;
1400;SDS011;46518;48.842;8.926;2023-12-20T11:15:39;5.47;;;2.30;;
1400;SDS011;46518;48.842;8.926;2023-12-20T11:18:08;4.28;;;2.40;;
1400;SDS011;46518;48.842;8.926;2023-12-20T11:20:38;4.30;;;2.42;;
1400;SDS011;46518;48.842;8.926;2023-12-20T11:23:08;5.18;;;2.25;;
1400;SDS011;46518;48.842;8.926;2023-12-20T11:25:52;5.30;;;1.95;;
1400;SDS011;46518;48.842;8.926;2023-12-20T11:28:22;3.63;;;2.10;;
1400;SDS011;46518;48.842;8.926;2023-12-20T11:30:52;3.25;;;2.50;;
1400;SDS011;46518;48.842;8.926;2023-12-20T11:33:21;4.90;;;2.72;;
1400;SDS011;46518;48.842;8.926;2023-12-20T11:35:56;7.30;;;2.90;;
1400;SDS011;46518;48.842;8.926;2023-12-20T11:38:25;3.75;;;2.55;;
1400;SDS011;46518;48.842;8.926;2023-12-20T11:40:53;5.15;;;2.42;;
1400;SDS011;46518;48.842;8.926;2023-12-20T11:43:32;3.22;;;2.75;;
1400;SDS011;46518;48.842;8.926;2023-12-20T11:46:03;3.78;;;2.60;;
1400;SDS011;46518;48.842;8.926;2023-12-20T11:48:34;6.15;;;3.00;;
1400;SDS011;46518;48.842;8.926;2023-12-20T11:51:09;4.18;;;3.00;;
1400;SDS011;46518;48.842;8.926;2023-12-20T11:53:41;6.78;;;2.78;;
1400;SDS011;46518;48.842;8.926;2023-12-20T11:56:10;2.53;;;2.30;;
1400;SDS011;46518;48.842;8.926;2023-12-20T11:58:42;3.20;;;2.20;;
1400;SDS011;46518;48.842;8.926;2023-12-20T12:01:10;3.30;;;2.25;;
1400;SDS011;46518;48.842;8.926;2023-12-20T12:03:38;4.15;;;2.25;;
1400;SDS011;46518;48.842;8.926;2023-12-20T12:06:07;5.97;;;2.17;;
1400;SDS011;46518;48.842;8.926;2023-12-20T12:08:37;3.25;;;2.28;;
1400;SDS011;46518;48.842;8.926;2023-12-20T12:11:05;3.60;;;2.05;;
1400;SDS011;46518;48.842;8.926;2023-12-20T12:13:33;11.82;;;2.42;;
1400;SDS011;46518;48.842;8.926;2023-12-20T12:16:02;8.18;;;2.05;;
1400;SDS011;46518;48.842;8.926;2023-12-20T12:18:30;5.05;;;2.50;;
1400;SDS011;46518;48.842;8.926;2023-12-20T12:21:01;2.75;;;2.50;;
1400;SDS011;46518;48.842;8.926;2023-12-20T12:23:40;3.25;;;2.40;;
1400;SDS011;46518;48.842;8.926;2023-12-20T12:26:08;3.85;;;2.30;;
1400;SDS011;46518;48.842;8.926;2023-12-20T12:28:37;5.13;;;2.38;;
1400;SDS011;46518;48.842;8.926;2023-12-20T12:31:08;2.70;;;1.98;;
1400;SDS011;46518;48.842;8.926;2023-12-20T12:33:40;4.47;;;2.13;;
1400;SDS011;46518;48.842;8.926;2023-12-20T12:36:11;4.25;;;2.10;;
1400;SDS011;46518;48.842;8.926;2023-12-20T12:38:44;3.67;;;2.00;;
1400;SDS011;46518;48.842;8.926;2023-12-20T12:41:12;2.85;;;1.73;;
1400;SDS011;46518;48.842;8.926;2023-12-20T12:43:42;5.80;;;2.15;;
1400;SDS011;46518;48.842;8.926;2023-12-20T12:46:10;5.43;;;2.20;;
1400;SDS011;46518;48.842;8.926;2023-12-20T12:48:38;2.17;;;1.95;;
1400;SDS011;46518;48.842;8.926;2023-12-20T12:51:09;4.15;;;1.90;;
1400;SDS011;46518;48.842;8.926;2023-12-20T12:53:41;3.35;;;2.22;;
1400;SDS011;46518;48.842;8.926;2023-12-20T12:56:11;6.72;;;1.80;;
1400;SDS011;46518;48.842;8.926;2023-12-20T12:58:40;7.30;;;2.13;;
1400;SDS011;46518;48.842;8.926;2023-12-20T13:01:08;2.38;;;1.75;;
1400;SDS011;46518;48.842;8.926;2023-12-20T13:03:41;2.28;;;1.75;;
1400;SDS011;46518;48.842;8.926;2023-12-20T13:06:12;1.92;;;1.83;;
1400;SDS011;46518;48.842;8.926;2023-12-20T13:08:44;3.72;;;1.85;;
1400;SDS011;46518;48.842;8.926;2023-12-20T13:11:17;2.60;;;2.10;;
1400;SDS011;46518;48.842;8.926;2023-12-20T13:13:45;5.43;;;2.10;;
1400;SDS011;46518;48.842;8.926;2023-12-20T13:16:13;3.47;;;1.90;;
1400;SDS011;46518;48.842;8.926;2023-12-20T13:18:44;7.22;;;3.70;;
1400;SDS011;46518;48.842;8.926;2023-12-20T13:21:13;10.38;;;1.95;;
1400;SDS011;46518;48.842;8.926;2023-12-20T13:23:41;5.53;;;1.95;;
1400;SDS011;46518;48.842;8.926;2023-12-20T13:26:09;6.55;;;2.28;;
1400;SDS011;46518;48.842;8.926;2023-12-20T13:28:38;2.03;;;1.85;;
1400;SDS011;46518;48.842;8.926;2023-12-20T13:31:07;2.75;;;1.80;;
1400;SDS011;46518;48.842;8.926;2023-12-20T13:33:37;2.33;;;1.90;;
1400;SDS011;46518;48.842;8.926;2023-12-20T13:36:06;6.07;;;2.20;;
1400;SDS011;46518;48.842;8.926;2023-12-20T13:38:34;5.70;;;2.20;;
1400;SDS011;46518;48.842;8.926;2023-12-20T13:41:03;2.85;;;1.77;;
1400;SDS011;46518;48.842;8.926;2023-12-20T13:43:31;5.47;;;2.70;;
1400;SDS011;46518;48.842;8.926;2023-12-20T13:46:04;3.05;;;2.03;;
1400;SDS011;46518;48.842;8.926;2023-12-20T13:48:39;2.03;;;1.83;;
1400;SDS011;46518;48.842;8.926;2023-12-20T13:51:08;3.55;;;2.20;;
1400;SDS011;46518;48.842;8.926;2023-12-20T13:53:36;8.23;;;2.53;;
1400;SDS011;46518;48.842;8.926;2023-12-20T13:56:05;3.45;;;2.08;;
1400;SDS011;46518;48.842;8.926;2023-12-20T13:58:36;4.90;;;2.70;;
1400;SDS011;46518;48.842;8.926;2023-12-20T14:01:06;6.53;;;2.60;;
1400;SDS011;46518;48.842;8.926;2023-12-20T14:03:37;5.97;;;1.95;;
1400;SDS011;46518;48.842;8.926;2023-12-20T14:06:07;6.38;;;2.50;;
1400;SDS011;46518;48.842;8.926;2023-12-20T14:08:39;3.35;;;2.50;;
1400;SDS011;46518;48.842;8.926;2023-12-20T14:11:11;16.23;;;2.55;;
1400;SDS011;46518;48.842;8.926;2023-12-20T14:13:42;3.53;;;1.85;;
1400;SDS011;46518;48.842;8.926;2023-12-20T14:16:12;5.03;;;1.90;;
1400;SDS011;46518;48.842;8.926;2023-12-20T14:18:41;3.75;;;1.75;;
1400;SDS011;46518;48.842;8.926;2023-12-20T14:21:09;3.03;;;2.08;;
1400;SDS011;46518;48.842;8.926;2023-12-20T14:23:41;2.80;;;2.00;;
1400;SDS011;46518;48.842;8.926;2023-12-20T14:26:12;4.55;;;3.05;;
1400;SDS011;46518;48.842;8.926;2023-12-20T14:28:41;2.95;;;2.20;;
1400;SDS011;46518;48.842;8.926;2023-12-20T14:31:10;2.40;;;2.20;;
1400;SDS011;46518;48.842;8.926;2023-12-20T14:33:43;3.53;;;2.30;;
1400;SDS011;46518;48.842;8.926;2023-12-20T14:36:13;5.00;;;2.78;;
1400;SDS011;46518;48.842;8.926;2023-12-20T14:38:41;4.32;;;2.30;;
1400;SDS011;46518;48.842;8.926;2023-12-20T14:41:11;7.32;;;2.10;;
1400;SDS011;46518;48.842;8.926;2023-12-20T14:43:39;4.63;;;2.30;;
1400;SDS011;46518;48.842;8.926;2023-12-20T14:46:07;5.68;;;1.88;;
1400;SDS011;46518;48.842;8.926;2023-12-20T14:48:40;4.10;;;1.75;;
1400;SDS011;46518;48.842;8.926;2023-12-20T14:51:09;5.80;;;1.80;;
1400;SDS011;46518;48.842;8.926;2023-12-20T14:53:45;2.53;;;1.90;;
1400;SDS011;46518;48.842;8.926;2023-12-20T14:56:14;5.47;;;2.55;;
1400;SDS011;46518;48.842;8.926;2023-12-20T14:58:45;3.85;;;2.60;;
1400;SDS011;46518;48.842;8.926;2023-12-20T15:01:18;3.30;;;1.90;;
1400;SDS011;46518;48.842;8.926;2023-12-20T15:03:50;10.18;;;3.63;;
1400;SDS011;46518;48.842;8.926;2023-12-20T15:06:22;3.55;;;1.77;;
1400;SDS011;46518;48.842;8.926;2023-12-20T15:08:54;5.35;;;1.92;;
1400;SDS011;46518;48.842;8.926;2023-12-20T15:11:23;2.47;;;2.28;;
1400;SDS011;46518;48.842;8.926;2023-12-20T15:13:54;8.77;;;2.47;;
1400;SDS011;46518;48.842;8.926;2023-12-20T15:16:23;9.98;;;3.20;;
1400;SDS011;46518;48.842;8.926;2023-12-20T15:18:56;3.25;;;1.55;;
1400;SDS011;46518;48.842;8.926;2023-12-20T15:21:24;3.75;;;2.03;;